createdAt,value
2022-09-12T00:02:15.356Z,8.55
2022-09-12T00:04:42.173Z,10.02
2022-09-12T00:07:08.771Z,8.90
2022-09-12T00:09:35.472Z,7.45
2022-09-12T00:12:02.369Z,7.00
2022-09-12T00:14:29.134Z,8.70
2022-09-12T00:16:59.388Z,9.93
2022-09-12T00:19:27.621Z,8.63
2022-09-12T00:21:54.778Z,9.02
2022-09-12T00:24:21.719Z,8.98
2022-09-12T00:26:48.644Z,8.48
2022-09-12T00:29:20.215Z,9.35
2022-09-12T00:31:47.704Z,8.93
2022-09-12T00:34:14.530Z,8.70
2022-09-12T00:36:41.346Z,8.80
2022-09-12T00:39:09.044Z,8.68
2022-09-12T00:41:38.939Z,9.55
2022-09-12T00:44:24.176Z,8.77
2022-09-12T00:47:04.726Z,7.93
2022-09-12T00:49:44.323Z,8.80
2022-09-12T00:52:20.853Z,8.50
2022-09-12T00:54:53.855Z,7.50
2022-09-12T00:57:23.522Z,8.57
2022-09-12T01:00:01.195Z,8.55
2022-09-12T01:02:28.278Z,8.90
2022-09-12T01:04:55.739Z,8.25
2022-09-12T01:07:22.476Z,8.15
2022-09-12T01:09:49.544Z,7.82
2022-09-12T01:12:17.362Z,9.02
2022-09-12T01:14:43.952Z,9.77
2022-09-12T01:17:15.419Z,6.85
2022-09-12T01:20:05.941Z,10.63
2022-09-12T01:23:03.448Z,9.48
2022-09-12T01:25:35.826Z,7.72
2022-09-12T01:30:53.993Z,9.27
2022-09-12T01:34:06.699Z,10.35
2022-09-12T01:36:53.834Z,7.18
2022-09-12T01:39:40.685Z,8.23
2022-09-12T01:42:42.168Z,8.20
2022-09-12T01:45:35.160Z,8.55
2022-09-12T01:48:15.629Z,6.78
2022-09-12T01:51:04.740Z,8.55
2022-09-12T01:53:48.706Z,8.60
2022-09-12T01:56:28.569Z,9.30
2022-09-12T01:59:01.481Z,9.63
2022-09-12T02:01:32.057Z,8.95
2022-09-12T02:04:03.454Z,9.60
2022-09-12T02:06:37.315Z,9.55
2022-09-12T02:09:10.423Z,7.72
2022-09-12T02:11:42.723Z,7.90
2022-09-12T02:14:22.379Z,7.43
2022-09-12T02:17:18.004Z,8.32
2022-09-12T02:19:49.178Z,8.77
2022-09-12T02:22:19.796Z,8.88
2022-09-12T02:24:50.594Z,9.77
2022-09-12T02:27:41.009Z,9.30
2022-09-12T02:30:08.890Z,8.82
2022-09-12T02:32:54.343Z,9.75
2022-09-12T02:35:31.133Z,8.80
2022-09-12T02:38:07.512Z,10.23
2022-09-12T02:40:35.811Z,10.95
2022-09-12T02:43:04.983Z,12.23
2022-09-12T02:45:34.295Z,16.52
2022-09-12T02:48:13.666Z,14.95
2022-09-12T02:50:41.079Z,13.80
2022-09-12T02:53:09.207Z,14.32
2022-09-12T02:55:38.616Z,16.35
2022-09-12T02:58:09.686Z,19.08
2022-09-12T03:00:48.457Z,12.45
2022-09-12T03:03:26.823Z,12.45
2022-09-12T03:06:00.165Z,11.52
2022-09-12T03:08:42.891Z,13.18
2022-09-12T03:11:36.045Z,16.77
2022-09-12T03:14:31.650Z,17.90
2022-09-12T03:17:16.990Z,16.23
2022-09-12T03:20:21.830Z,15.85
2022-09-12T03:22:53.813Z,18.20
2022-09-12T03:25:27.894Z,16.02
2022-09-12T03:28:11.699Z,13.55
2022-09-12T03:30:46.382Z,17.58
2022-09-12T03:33:16.039Z,17.42
2022-09-12T03:35:43.666Z,16.15
2022-09-12T03:38:10.449Z,16.13
2022-09-12T03:40:38.477Z,17.67
2022-09-12T03:43:06.591Z,14.27
2022-09-12T03:45:33.441Z,13.57
2022-09-12T03:48:00.183Z,21.35
2022-09-12T03:50:26.850Z,16.95
2022-09-12T03:52:53.536Z,16.42
2022-09-12T03:55:20.307Z,12.25
2022-09-12T03:57:46.883Z,13.07
2022-09-12T04:00:19.067Z,15.15
2022-09-12T04:02:46.456Z,12.55
2022-09-12T04:05:13.155Z,12.32
2022-09-12T04:07:39.797Z,12.73
2022-09-12T04:10:07.074Z,13.27
2022-09-12T04:12:35.461Z,8.98
2022-09-12T04:15:02.259Z,12.25
2022-09-12T04:17:28.841Z,15.07
2022-09-12T04:19:55.461Z,14.73
2022-09-12T04:22:22.162Z,12.18
2022-09-12T04:24:48.746Z,14.27
2022-09-12T04:27:15.351Z,10.07
2022-09-12T04:29:42.011Z,11.85
2022-09-12T04:32:08.612Z,12.32
2022-09-12T04:34:35.440Z,11.95
2022-09-12T04:37:02.009Z,14.23
2022-09-12T04:39:28.654Z,13.25
2022-09-12T04:41:55.255Z,15.73
2022-09-12T04:44:22.022Z,13.82
2022-09-12T04:46:48.883Z,18.08
2022-09-12T04:49:19.434Z,12.98
2022-09-12T04:51:46.837Z,11.50
2022-09-12T04:54:19.052Z,14.60
2022-09-12T04:56:48.895Z,27.58
2022-09-12T04:59:17.006Z,12.15
2022-09-12T05:01:43.903Z,12.13
2022-09-12T05:04:12.947Z,15.48
2022-09-12T05:06:41.319Z,20.33
2022-09-12T05:09:11.292Z,24.80
2022-09-12T05:12:03.360Z,11.45
2022-09-12T05:14:27.665Z,12.43
2022-09-12T05:16:56.390Z,17.13
2022-09-12T05:19:23.518Z,17.65
2022-09-12T05:21:50.242Z,14.60
2022-09-12T05:24:16.962Z,24.85
2022-09-12T05:26:43.867Z,24.02
2022-09-12T05:29:10.463Z,24.85
2022-09-12T05:31:37.694Z,26.33
2022-09-12T05:34:10.050Z,23.60
2022-09-12T05:39:04.609Z,9.57
2022-09-12T05:41:32.877Z,12.90
2022-09-12T05:44:10.846Z,12.65
2022-09-12T05:46:43.677Z,14.75
2022-09-12T05:49:12.675Z,13.05
2022-09-12T05:51:43.841Z,14.90
2022-09-12T05:54:13.219Z,15.15
2022-09-12T05:56:42.483Z,27.70
2022-09-12T05:59:18.262Z,40.22
2022-09-12T06:01:45.416Z,63.60
2022-09-12T06:04:12.204Z,14.77
2022-09-12T06:06:41.793Z,15.85
2022-09-12T06:09:09.488Z,11.57
2022-09-12T06:11:37.904Z,15.88
2022-09-12T06:14:05.165Z,16.27
2022-09-12T06:16:33.852Z,14.95
2022-09-12T06:19:03.368Z,33.92
2022-09-12T06:21:35.151Z,18.77
2022-09-12T06:24:02.478Z,19.67
2022-09-12T06:26:29.686Z,14.50
2022-09-12T06:28:59.227Z,17.13
2022-09-12T06:31:29.303Z,13.15
2022-09-12T06:33:57.325Z,20.20
2022-09-12T06:36:26.921Z,21.42
2022-09-12T06:39:20.806Z,14.90
2022-09-12T06:41:48.823Z,14.77
2022-09-12T06:44:20.897Z,20.98
2022-09-12T06:46:47.988Z,11.95
2022-09-12T06:49:17.482Z,12.27
2022-09-12T06:51:44.437Z,22.13
2022-09-12T06:54:13.931Z,14.73
2022-09-12T06:56:40.736Z,25.80
2022-09-12T06:59:07.388Z,16.08
2022-09-12T07:01:34.344Z,15.27
2022-09-12T07:04:03.840Z,15.20
2022-09-12T07:06:36.236Z,15.63
2022-09-12T07:11:33.352Z,19.10
2022-09-12T07:14:01.809Z,12.90
2022-09-12T07:16:29.210Z,13.55
2022-09-12T07:18:58.220Z,34.25
2022-09-12T07:21:25.127Z,17.63
2022-09-12T07:23:51.941Z,15.07
2022-09-12T07:26:19.001Z,20.30
2022-09-12T07:28:45.663Z,19.98
2022-09-12T07:31:15.440Z,17.42
2022-09-12T07:33:43.266Z,16.23
2022-09-12T07:36:18.080Z,16.27
2022-09-12T07:38:45.102Z,20.27
2022-09-12T07:41:19.503Z,22.23
2022-09-12T07:43:46.274Z,16.58
2022-09-12T07:46:14.328Z,14.73
2022-09-12T07:48:41.342Z,23.35
2022-09-12T07:51:09.978Z,14.32
2022-09-12T07:53:39.036Z,16.30
2022-09-12T07:56:07.207Z,18.02
2022-09-12T07:58:36.355Z,19.63
2022-09-12T08:01:14.831Z,18.23
2022-09-12T08:03:43.110Z,18.20
2022-09-12T08:06:21.097Z,25.48
2022-09-12T08:08:48.755Z,18.75
2022-09-12T08:11:18.147Z,20.30
2022-09-12T08:13:45.616Z,25.75
2022-09-12T08:16:14.823Z,19.55
2022-09-12T08:18:41.872Z,20.77
2022-09-12T08:21:14.318Z,24.08
2022-09-12T08:23:42.412Z,19.50
2022-09-12T08:26:10.635Z,20.23
2022-09-12T08:28:39.968Z,20.40
2022-09-12T08:31:14.141Z,18.35
2022-09-12T08:33:41.102Z,19.40
2022-09-12T08:36:12.140Z,18.63
2022-09-12T08:38:41.672Z,17.67
2022-09-12T08:41:21.618Z,15.05
2022-09-12T08:43:56.755Z,18.50
2022-09-12T08:46:34.768Z,16.45
2022-09-12T08:49:04.175Z,14.80
2022-09-12T08:51:34.567Z,14.07
2022-09-12T08:54:03.069Z,14.80
2022-09-12T08:56:36.072Z,14.40
2022-09-12T08:59:03.409Z,15.05
2022-09-12T09:01:38.387Z,13.00
2022-09-12T09:04:42.176Z,12.73
2022-09-12T09:10:20.608Z,13.25
2022-09-12T09:13:13.598Z,13.00
2022-09-12T09:16:08.557Z,13.05
2022-09-12T09:18:36.696Z,10.82
2022-09-12T09:21:11.855Z,12.30
2022-09-12T09:23:46.337Z,13.50
2022-09-12T09:26:26.619Z,12.25
2022-09-12T09:29:01.092Z,12.90
2022-09-12T09:31:37.444Z,11.15
2022-09-12T09:34:14.323Z,12.55
2022-09-12T09:36:53.404Z,10.32
2022-09-12T09:39:57.949Z,10.07
2022-09-12T09:42:58.472Z,9.82
2022-09-12T09:45:29.119Z,10.65
2022-09-12T09:48:12.336Z,10.63
2022-09-12T09:50:39.121Z,10.45
2022-09-12T09:53:14.894Z,11.75
2022-09-12T09:55:44.552Z,10.57
2022-09-12T09:58:11.262Z,9.80
2022-09-12T10:00:39.024Z,10.95
2022-09-12T10:03:14.844Z,8.30
2022-09-12T10:05:49.936Z,9.50
2022-09-12T10:08:24.549Z,9.02
2022-09-12T10:11:01.859Z,8.52
2022-09-12T10:13:40.609Z,7.93
2022-09-12T10:16:19.506Z,7.30
2022-09-12T10:18:46.428Z,6.25
2022-09-12T10:21:20.625Z,8.45
2022-09-12T10:23:50.892Z,7.70
2022-09-12T10:26:21.683Z,9.20
2022-09-12T10:28:54.916Z,6.95
2022-09-12T10:31:36.126Z,7.43
2022-09-12T10:34:02.820Z,7.32
2022-09-12T10:36:38.030Z,8.50
2022-09-12T10:39:05.795Z,4.95
2022-09-12T10:41:41.340Z,7.53
2022-09-12T10:44:14.796Z,7.47
2022-09-12T10:46:41.376Z,8.40
2022-09-12T10:49:21.481Z,7.78
2022-09-12T10:51:48.844Z,5.60
2022-09-12T10:54:18.799Z,7.13
2022-09-12T10:57:23.319Z,6.93
2022-09-12T11:00:17.768Z,9.35
2022-09-12T11:03:24.749Z,6.22
2022-09-12T11:06:01.761Z,8.60
2022-09-12T11:08:38.645Z,7.60
2022-09-12T11:11:29.518Z,7.70
2022-09-12T11:17:00.951Z,8.00
2022-09-12T11:20:00.382Z,8.80
2022-09-12T11:22:52.850Z,8.48
2022-09-12T11:25:28.946Z,9.60
2022-09-12T11:28:02.991Z,8.77
2022-09-12T11:30:43.512Z,8.30
2022-09-12T11:33:42.844Z,7.55
2022-09-12T11:36:40.663Z,9.88
2022-09-12T11:39:07.240Z,8.27
2022-09-12T11:41:38.193Z,7.82
2022-09-12T11:44:14.221Z,9.48
2022-09-12T11:46:43.403Z,12.30
2022-09-12T11:49:13.410Z,9.02
2022-09-12T11:51:58.702Z,10.00
2022-09-12T11:54:35.387Z,8.73
2022-09-12T11:57:14.102Z,9.82
2022-09-12T11:59:50.030Z,10.68
2022-09-12T12:02:43.434Z,12.52
2022-09-12T12:05:20.336Z,9.85
2022-09-12T12:07:58.421Z,9.52
2022-09-12T12:10:41.533Z,11.45
2022-09-12T12:13:16.314Z,10.02
2022-09-12T12:15:49.742Z,8.60
2022-09-12T12:18:23.974Z,10.18
2022-09-12T12:20:51.840Z,12.27
2022-09-12T12:23:34.289Z,10.60
2022-09-12T12:26:03.124Z,10.98
2022-09-12T12:28:41.783Z,12.05
2022-09-12T12:31:10.476Z,11.40
2022-09-12T12:33:39.947Z,11.30
2022-09-12T12:36:10.339Z,9.25
2022-09-12T12:38:39.011Z,9.48
2022-09-12T12:41:17.611Z,9.57
2022-09-12T12:43:46.156Z,10.18
2022-09-12T12:46:15.644Z,9.93
2022-09-12T12:48:56.690Z,9.40
2022-09-12T12:51:48.503Z,10.35
2022-09-12T12:54:29.118Z,9.30
2022-09-12T12:57:04.958Z,9.38
2022-09-12T12:59:32.185Z,11.25
2022-09-12T13:01:59.966Z,10.52
2022-09-12T13:04:30.029Z,7.65
2022-09-12T13:07:08.246Z,10.13
2022-09-12T13:09:45.980Z,6.82
2022-09-12T13:12:28.274Z,9.63
2022-09-12T13:14:58.320Z,8.45
2022-09-12T13:17:33.200Z,8.60
2022-09-12T13:20:28.252Z,7.70
2022-09-12T13:22:55.604Z,9.38
2022-09-12T13:25:33.132Z,8.70
2022-09-12T13:28:02.748Z,8.55
2022-09-12T13:30:35.517Z,9.38
2022-09-12T13:33:29.102Z,9.15
2022-09-12T13:36:04.658Z,7.75
2022-09-12T13:38:39.569Z,11.75
2022-09-12T13:41:27.289Z,9.77
2022-09-12T13:43:54.190Z,8.48
2022-09-12T13:46:30.684Z,8.35
2022-09-12T13:48:59.963Z,8.27
2022-09-12T13:51:29.467Z,8.93
2022-09-12T13:54:00.119Z,9.38
2022-09-12T13:56:27.088Z,8.48
2022-09-12T13:58:56.913Z,8.93
2022-09-12T14:01:36.507Z,7.55
2022-09-12T14:04:39.889Z,8.63
2022-09-12T14:09:52.503Z,7.10
2022-09-12T14:12:28.479Z,8.38
2022-09-12T14:14:55.326Z,7.93
2022-09-12T14:17:32.766Z,8.13
2022-09-12T14:20:03.712Z,7.05
2022-09-12T14:22:31.214Z,8.48
2022-09-12T14:24:59.746Z,7.93
2022-09-12T14:27:43.059Z,6.63
2022-09-12T14:30:34.653Z,11.00
2022-09-12T14:33:10.407Z,7.82
2022-09-12T14:35:51.568Z,11.27
2022-09-12T14:38:24.702Z,7.65
2022-09-12T14:40:59.819Z,7.40
2022-09-12T14:43:35.016Z,6.68
2022-09-12T14:46:15.292Z,7.50
2022-09-12T14:48:53.242Z,7.03
2022-09-12T14:51:36.884Z,6.88
2022-09-12T14:54:03.699Z,8.13
2022-09-12T14:56:52.976Z,8.23
2022-09-12T14:59:39.000Z,4.93
2022-09-12T15:02:20.524Z,6.95
2022-09-12T15:05:03.801Z,7.40
2022-09-12T15:07:34.913Z,5.30
2022-09-12T15:10:16.982Z,5.13
2022-09-12T15:12:43.671Z,5.60
2022-09-12T15:15:16.394Z,6.82
2022-09-12T15:17:43.564Z,6.07
2022-09-12T15:20:11.725Z,5.72
2022-09-12T15:22:39.515Z,6.47
2022-09-12T15:25:06.736Z,7.20
2022-09-12T15:27:33.432Z,7.30
2022-09-12T15:30:00.228Z,5.57
2022-09-12T15:32:31.221Z,6.30
2022-09-12T15:34:57.899Z,5.90
2022-09-12T15:37:25.374Z,5.97
2022-09-12T15:39:52.091Z,6.90
2022-09-12T15:42:27.754Z,9.55
2022-09-12T15:44:54.933Z,6.20
2022-09-12T15:47:23.069Z,11.52
2022-09-12T15:49:50.394Z,6.68
2022-09-12T15:52:17.192Z,6.85
2022-09-12T15:54:43.975Z,7.20
2022-09-12T15:57:10.790Z,6.07
2022-09-12T15:59:37.640Z,7.30
2022-09-12T16:02:04.459Z,6.18
2022-09-12T16:04:31.572Z,6.82
2022-09-12T16:06:58.482Z,6.75
2022-09-12T16:09:25.235Z,5.38
2022-09-12T16:11:52.275Z,7.00
2022-09-12T16:14:19.797Z,10.63
2022-09-12T16:16:53.788Z,9.38
2022-09-12T16:19:20.900Z,6.65
2022-09-12T16:21:47.729Z,7.32
2022-09-12T16:24:14.356Z,7.15
2022-09-12T16:26:40.979Z,5.72
2022-09-12T16:29:08.921Z,6.32
2022-09-12T16:31:38.235Z,5.53
2022-09-12T16:34:04.941Z,7.85
2022-09-12T16:36:31.525Z,7.05
2022-09-12T16:38:58.137Z,6.93
2022-09-12T16:41:25.443Z,5.82
2022-09-12T16:43:52.403Z,6.65
2022-09-12T16:46:30.142Z,5.20
2022-09-12T16:48:58.426Z,7.50
2022-09-12T16:51:35.227Z,7.45
2022-09-12T16:54:02.145Z,7.28
2022-09-12T16:56:28.787Z,6.47
2022-09-12T16:58:55.561Z,5.85
2022-09-12T17:01:26.312Z,6.07
2022-09-12T17:03:54.617Z,6.40
2022-09-12T17:06:21.844Z,6.00
2022-09-12T17:08:50.285Z,6.22
2022-09-12T17:11:25.161Z,6.53
2022-09-12T17:14:04.557Z,7.60
2022-09-12T17:16:34.584Z,7.93
2022-09-12T17:19:01.258Z,6.93
2022-09-12T17:21:27.903Z,6.57
2022-09-12T17:23:54.872Z,8.02
2022-09-12T17:26:21.560Z,5.90
2022-09-12T17:28:48.358Z,6.97
2022-09-12T17:31:15.611Z,5.95
2022-09-12T17:33:42.759Z,6.80
2022-09-12T17:36:15.364Z,6.82
2022-09-12T17:38:43.520Z,5.85
2022-09-12T17:41:17.348Z,7.13
2022-09-12T17:43:45.963Z,5.43
2022-09-12T17:46:13.228Z,6.55
2022-09-12T17:48:39.878Z,7.80
2022-09-12T17:51:12.024Z,5.85
2022-09-12T17:53:39.273Z,6.22
2022-09-12T17:56:06.919Z,6.45
2022-09-12T17:58:34.160Z,8.30
2022-09-12T18:01:30.494Z,5.93
2022-09-12T18:04:00.605Z,6.88
2022-09-12T18:06:28.979Z,7.15
2022-09-12T18:08:55.971Z,7.10
2022-09-12T18:11:22.652Z,7.43
2022-09-12T18:13:49.546Z,6.40
2022-09-12T18:16:17.176Z,5.97
2022-09-12T18:18:43.951Z,7.03
2022-09-12T18:21:11.475Z,6.50
2022-09-12T18:23:38.480Z,6.70
2022-09-12T18:26:10.662Z,8.40
2022-09-12T18:28:42.724Z,6.70
2022-09-12T18:33:38.163Z,6.78
2022-09-12T18:36:06.287Z,6.93
2022-09-12T18:38:33.229Z,7.38
2022-09-12T18:41:26.844Z,5.53
2022-09-12T18:43:55.409Z,7.63
2022-09-12T18:46:22.272Z,7.30
2022-09-12T18:48:49.026Z,8.07
2022-09-12T18:51:20.934Z,6.53
2022-09-12T18:53:56.275Z,6.50
2022-09-12T18:56:27.794Z,8.98
2022-09-12T18:58:56.577Z,7.13
2022-09-12T19:01:25.479Z,7.47
2022-09-12T19:03:53.177Z,6.45
2022-09-12T19:06:28.304Z,7.15
2022-09-12T19:08:56.392Z,7.45
2022-09-12T19:11:24.016Z,9.63
2022-09-12T19:13:53.095Z,7.45
2022-09-12T19:16:22.583Z,7.90
2022-09-12T19:18:50.325Z,7.15
2022-09-12T19:21:19.696Z,7.18
2022-09-12T19:23:46.407Z,6.85
2022-09-12T19:26:14.967Z,8.27
2022-09-12T19:28:42.242Z,9.57
2022-09-12T19:31:11.342Z,6.88
2022-09-12T19:33:38.739Z,8.07
2022-09-12T19:36:22.270Z,7.53
2022-09-12T19:38:55.869Z,8.88
2022-09-12T19:41:22.966Z,6.47
2022-09-12T19:43:49.839Z,7.13
2022-09-12T19:46:18.564Z,7.88
2022-09-12T19:48:45.711Z,7.90
2022-09-12T19:51:12.598Z,9.10
2022-09-12T19:53:39.595Z,9.63
2022-09-12T19:56:07.665Z,7.57
2022-09-12T19:58:38.028Z,9.15
2022-09-12T20:01:14.164Z,8.73
2022-09-12T20:03:41.735Z,8.57
2022-09-12T20:06:16.541Z,8.13
2022-09-12T20:08:44.064Z,7.20
2022-09-12T20:11:13.019Z,9.20
2022-09-12T20:13:40.097Z,7.53
2022-09-12T20:16:15.760Z,10.45
2022-09-12T20:18:46.597Z,8.77
2022-09-12T20:21:18.750Z,9.75
2022-09-12T20:26:13.659Z,9.45
2022-09-12T20:28:41.289Z,9.45
2022-09-12T20:31:12.707Z,9.07
2022-09-12T20:33:40.060Z,9.43
2022-09-12T20:36:13.495Z,8.63
2022-09-12T20:38:41.171Z,7.50
2022-09-12T20:41:09.943Z,7.55
2022-09-12T20:43:38.518Z,8.77
2022-09-12T20:46:06.515Z,7.82
2022-09-12T20:48:33.203Z,8.30
2022-09-12T20:50:59.944Z,8.88
2022-09-12T20:53:29.637Z,7.03
2022-09-12T20:55:58.296Z,8.00
2022-09-12T20:58:25.049Z,8.23
2022-09-12T21:00:51.894Z,8.68
2022-09-12T21:03:19.067Z,9.25
2022-09-12T21:05:46.750Z,8.23
2022-09-12T21:08:14.241Z,8.68
2022-09-12T21:10:42.052Z,10.05
2022-09-12T21:13:12.911Z,9.32
2022-09-12T21:15:40.637Z,9.15
2022-09-12T21:18:07.335Z,7.88
2022-09-12T21:20:34.344Z,8.05
2022-09-12T21:23:00.960Z,9.10
2022-09-12T21:25:29.033Z,10.23
2022-09-12T21:27:55.666Z,9.75
2022-09-12T21:30:22.443Z,9.38
2022-09-12T21:32:49.130Z,8.35
2022-09-12T21:35:15.853Z,9.15
2022-09-12T21:37:42.452Z,8.52
2022-09-12T21:40:09.456Z,8.48
2022-09-12T21:42:36.039Z,8.95
2022-09-12T21:45:02.646Z,10.23
2022-09-12T21:47:29.325Z,8.63
2022-09-12T21:49:56.006Z,7.88
2022-09-12T21:52:22.665Z,8.57
2022-09-12T21:54:49.348Z,6.75
2022-09-12T21:57:16.012Z,8.40
2022-09-12T21:59:42.700Z,8.98
2022-09-12T22:02:10.160Z,7.57
2022-09-12T22:04:36.791Z,7.85
2022-09-12T22:07:03.492Z,8.50
2022-09-12T22:09:30.172Z,9.85
2022-09-12T22:11:56.772Z,8.85
2022-09-12T22:14:23.485Z,9.70
2022-09-12T22:16:50.075Z,8.10
2022-09-12T22:19:16.728Z,7.10
2022-09-12T22:22:03.297Z,8.75
2022-09-12T22:24:30.163Z,8.30
2022-09-12T22:26:59.062Z,9.57
2022-09-12T22:29:26.633Z,7.95
2022-09-12T22:31:53.722Z,11.07
2022-09-12T22:34:20.439Z,11.43
2022-09-12T22:36:50.213Z,8.15
2022-09-12T22:39:16.886Z,9.25
2022-09-12T22:41:43.674Z,7.78
2022-09-12T22:44:11.071Z,9.18
2022-09-12T22:46:38.488Z,8.30
2022-09-12T22:49:06.699Z,7.97
2022-09-12T22:51:34.101Z,9.52
2022-09-12T22:54:00.773Z,11.35
2022-09-12T22:56:27.609Z,10.45
2022-09-12T22:58:54.415Z,11.95
2022-09-12T23:01:21.408Z,11.57
2022-09-12T23:03:48.206Z,10.80
2022-09-12T23:06:14.922Z,11.35
2022-09-12T23:08:41.599Z,11.70
2022-09-12T23:11:13.709Z,11.40
2022-09-12T23:13:43.595Z,10.85
2022-09-12T23:16:15.322Z,11.77
2022-09-12T23:18:41.986Z,11.25
2022-09-12T23:21:11.549Z,11.80
2022-09-12T23:23:38.895Z,12.77
2022-09-12T23:26:12.625Z,11.60
2022-09-12T23:28:47.937Z,11.05
2022-09-12T23:31:15.109Z,11.38
2022-09-12T23:33:41.729Z,12.35
2022-09-12T23:36:14.149Z,12.05
2022-09-12T23:38:43.375Z,10.60
2022-09-12T23:41:11.933Z,10.10
2022-09-12T23:43:38.961Z,11.38
2022-09-12T23:46:06.662Z,10.93
2022-09-12T23:48:33.862Z,11.90
2022-09-12T23:51:01.841Z,10.65
2022-09-12T23:53:29.533Z,10.57
2022-09-12T23:55:56.253Z,9.85
2022-09-12T23:58:22.915Z,9.00
